createdAt,value
2024-05-09T00:04:22.145Z,55.6
2024-05-09T00:09:40.382Z,54.9
2024-05-09T00:14:58.687Z,55.2
2024-05-09T00:20:37.881Z,55.6
2024-05-09T00:25:58.798Z,56.2
2024-05-09T00:31:16.958Z,55.9
2024-05-09T00:36:35.088Z,55.9
2024-05-09T00:41:53.428Z,56.2
2024-05-09T00:47:11.935Z,56.3
2024-05-09T00:52:30.525Z,56.1
2024-05-09T00:57:49.054Z,55.3
2024-05-09T01:03:09.461Z,56.6
2024-05-09T01:08:29.408Z,56.2
2024-05-09T01:13:47.907Z,56
2024-05-09T01:19:06.848Z,56.1
2024-05-09T01:24:25.317Z,55.8
2024-05-09T01:29:43.771Z,55.5
2024-05-09T01:35:02.316Z,56.6
2024-05-09T01:40:39.776Z,56.3
2024-05-09T01:45:58.468Z,56.5
2024-05-09T01:51:17.091Z,56.4
2024-05-09T01:56:35.722Z,55.4
2024-05-09T02:01:58.418Z,56.2
2024-05-09T02:07:16.901Z,56.3
2024-05-09T02:12:35.275Z,55.8
2024-05-09T02:17:57.638Z,56.3
2024-05-09T02:23:16.016Z,55.4
2024-05-09T02:28:34.308Z,56.3
2024-05-09T02:33:53.491Z,56.6
2024-05-09T02:39:11.915Z,55.8
2024-05-09T02:44:30.893Z,55.7
2024-05-09T02:49:49.294Z,56.1
2024-05-09T02:55:07.443Z,55.6
2024-05-09T03:00:42.582Z,55.9
2024-05-09T03:06:01.554Z,56.3
2024-05-09T03:11:20.003Z,56
2024-05-09T03:16:38.349Z,56.9
2024-05-09T03:21:56.430Z,56.4
2024-05-09T03:27:14.351Z,56.6
2024-05-09T03:32:32.946Z,55.7
2024-05-09T03:37:51.282Z,56
2024-05-09T03:43:09.675Z,56
2024-05-09T03:48:28.315Z,54.5
2024-05-09T03:53:47.120Z,55.6
2024-05-09T03:59:05.617Z,54.8
2024-05-09T04:04:23.719Z,54.3
2024-05-09T04:09:42.126Z,55.1
2024-05-09T04:15:00.445Z,54.4
2024-05-09T04:20:40.410Z,54.7
2024-05-09T04:25:59.382Z,55.4
2024-05-09T04:31:17.579Z,54.2
2024-05-09T04:36:35.909Z,54.4
2024-05-09T04:41:54.234Z,54
2024-05-09T04:47:13.073Z,53.9
2024-05-09T04:52:31.159Z,53.5
2024-05-09T04:57:49.514Z,53.7
2024-05-09T05:03:13.575Z,54.7
2024-05-09T05:08:34.263Z,54.2
2024-05-09T05:13:53.029Z,54.9
2024-05-09T05:19:18.019Z,54.3
2024-05-09T05:24:36.364Z,54.1
2024-05-09T05:29:54.603Z,54.8
2024-05-09T05:35:13.126Z,54.4
2024-05-09T05:40:40.568Z,54.7
2024-05-09T05:45:59.302Z,54.2
2024-05-09T05:51:17.698Z,54.6
2024-05-09T05:56:36.548Z,54
2024-05-09T06:01:54.820Z,54.1
2024-05-09T06:07:12.930Z,54.6
2024-05-09T06:12:31.363Z,54.6
2024-05-09T06:17:50.012Z,54.2
2024-05-09T06:23:09.682Z,54.1
2024-05-09T06:28:28.710Z,54
2024-05-09T06:33:47.602Z,54.8
2024-05-09T06:39:05.787Z,54.1
2024-05-09T06:44:24.642Z,54.1
2024-05-09T06:49:42.730Z,53.9
2024-05-09T06:55:00.690Z,54
2024-05-09T07:00:40.706Z,54.2
2024-05-09T07:06:00.161Z,54.7
2024-05-09T07:11:18.441Z,54.1
2024-05-09T07:16:36.816Z,54
2024-05-09T07:21:54.971Z,54
2024-05-09T07:27:13.085Z,54.4
2024-05-09T07:32:31.859Z,54.3
2024-05-09T07:37:34.509Z,54.8
2024-05-09T07:42:52.686Z,54.6
2024-05-09T07:51:32.419Z,54.6
2024-05-09T07:58:28.243Z,54.7
2024-05-09T08:03:47.363Z,53.8
2024-05-09T08:09:20.700Z,54.6
2024-05-09T08:14:39.607Z,53.7
2024-05-09T08:19:58.134Z,53.9
2024-05-09T08:25:17.093Z,54.8
2024-05-09T08:30:38.939Z,53.8
2024-05-09T08:35:56.979Z,54.3
2024-05-09T08:41:15.319Z,53.8
2024-05-09T08:46:33.659Z,54.5
2024-05-09T08:51:51.680Z,54.2
2024-05-09T08:57:09.588Z,53.8
2024-05-09T09:02:28.695Z,54.6
2024-05-09T09:07:46.809Z,54.4
2024-05-09T09:13:06.235Z,54.4
2024-05-09T09:18:31.320Z,54
2024-05-09T09:23:50.058Z,54.4
2024-05-09T09:29:08.179Z,53.7
2024-05-09T09:34:26.928Z,54.3
2024-05-09T09:39:49.915Z,54.4
2024-05-09T09:45:08.390Z,53.6
2024-05-09T09:50:35.847Z,54.2
2024-05-09T09:55:54.147Z,53.5
2024-05-09T10:01:12.822Z,53.6
2024-05-09T10:06:31.345Z,53.7
2024-05-09T10:12:00.688Z,53.7
2024-05-09T10:17:19.186Z,54.2
2024-05-09T10:22:37.500Z,53.7
2024-05-09T10:27:56.374Z,53.7
2024-05-09T10:33:14.927Z,53.5
2024-05-09T10:38:33.404Z,53.9
2024-05-09T10:43:51.984Z,53.2
2024-05-09T10:49:10.568Z,53.4
2024-05-09T10:54:29.126Z,53.8
2024-05-09T10:59:47.450Z,54
2024-05-09T11:05:06.244Z,53.9
2024-05-09T11:10:34.982Z,53.1
2024-05-09T11:15:53.567Z,53.2
2024-05-09T11:21:11.997Z,53.1
2024-05-09T11:26:30.303Z,53.1
2024-05-09T11:31:48.988Z,53.1
2024-05-09T11:37:07.016Z,53
2024-05-09T11:42:25.527Z,53.9
2024-05-09T11:47:43.723Z,53.5
2024-05-09T11:53:01.763Z,53.2
2024-05-09T11:58:20.452Z,53.3
2024-05-09T12:03:39.435Z,53.4
2024-05-09T12:08:58.065Z,53.3
2024-05-09T12:14:16.226Z,53.3
2024-05-09T12:19:34.668Z,53.4
2024-05-09T12:24:53.065Z,53.8
2024-05-09T12:30:32.008Z,53.2
2024-05-09T12:35:55.296Z,53.3
2024-05-09T12:41:13.216Z,53.9
2024-05-09T12:46:31.841Z,53.8
2024-05-09T12:51:50.827Z,53.5
2024-05-09T12:57:09.145Z,53.2
2024-05-09T13:02:27.897Z,53.7
2024-05-09T13:07:46.406Z,53.2
2024-05-09T13:13:04.967Z,53.9
2024-05-09T13:18:23.569Z,53.3
2024-05-09T13:23:41.943Z,53.9
2024-05-09T13:29:00.235Z,53.8
2024-05-09T13:34:18.684Z,53.1
2024-05-09T13:39:36.928Z,53.5
2024-05-09T13:44:55.447Z,54
2024-05-09T13:50:35.533Z,53.6
2024-05-09T13:55:55.063Z,50.7
2024-05-09T14:01:13.574Z,50.5
2024-05-09T14:06:32.202Z,50.8
2024-05-09T14:11:50.545Z,51.7
2024-05-09T14:17:08.905Z,55.4
2024-05-09T14:22:27.155Z,56.4
2024-05-09T14:27:45.469Z,53.5
2024-05-09T14:33:05.192Z,54.2
2024-05-09T14:38:24.107Z,54.9
2024-05-09T14:43:42.224Z,54.6
2024-05-09T14:49:00.710Z,54.4
2024-05-09T14:54:18.931Z,54.3
2024-05-09T14:59:37.230Z,51.7
2024-05-09T15:04:55.959Z,51.9
2024-05-09T15:10:35.737Z,52.4
2024-05-09T15:15:55.378Z,53.6
2024-05-09T15:26:46.113Z,53.7
2024-05-09T15:32:04.507Z,52.7
2024-05-09T15:37:23.273Z,53.5
2024-05-09T15:42:43.839Z,54.8
2024-05-09T15:48:02.538Z,55
2024-05-09T15:53:20.925Z,53.8
2024-05-09T15:58:39.268Z,54.2
2024-05-09T16:03:58.233Z,54.3
2024-05-09T16:09:17.505Z,54.2
2024-05-09T16:14:36.021Z,53.9
2024-05-09T16:19:54.110Z,54.3
2024-05-09T16:25:12.668Z,54.6
2024-05-09T16:30:36.896Z,53.9
2024-05-09T16:35:55.685Z,54.5
2024-05-09T16:41:13.981Z,50.6
2024-05-09T16:46:32.376Z,50.3
2024-05-09T16:51:50.943Z,52.4
2024-05-09T16:57:09.253Z,53.4
2024-05-09T17:02:28.517Z,52.6
2024-05-09T17:07:56.848Z,53.6
2024-05-09T17:13:15.230Z,53.5
2024-05-09T17:18:33.680Z,54
2024-05-09T17:23:52.147Z,53.6
2024-05-09T17:29:13.057Z,55.9
2024-05-09T17:34:31.706Z,55.2
2024-05-09T17:39:50.337Z,55.2
2024-05-09T17:45:08.286Z,55.7
2024-05-09T17:50:38.049Z,55.7
2024-05-09T17:55:56.582Z,55.5
2024-05-09T18:01:15.003Z,55.2
2024-05-09T18:06:34.358Z,55.1
2024-05-09T18:11:52.842Z,55.3
2024-05-09T18:17:11.286Z,55.2
2024-05-09T18:22:29.672Z,55.1
2024-05-09T18:27:47.910Z,55.9
2024-05-09T18:33:09.760Z,55.8
2024-05-09T18:38:28.481Z,55.1
2024-05-09T18:43:51.498Z,55.2
2024-05-09T18:49:10.431Z,55.2
2024-05-09T18:54:28.831Z,56
2024-05-09T18:59:31.163Z,55.1
2024-05-09T19:04:49.898Z,55
2024-05-09T19:10:31.609Z,55
2024-05-09T19:15:52.219Z,55.6
2024-05-09T19:21:10.438Z,55.7
2024-05-09T19:26:28.734Z,55.1
2024-05-09T19:31:50.059Z,55.1
2024-05-09T19:37:08.822Z,54.9
2024-05-09T19:42:27.283Z,54.8
2024-05-09T19:47:46.160Z,55.4
2024-05-09T19:53:04.567Z,54.8
2024-05-09T19:58:23.240Z,55.6
2024-05-09T20:03:41.752Z,55.4
2024-05-09T20:09:00.043Z,54.5
2024-05-09T20:14:18.378Z,55.7
2024-05-09T20:19:37.143Z,55.3
2024-05-09T20:24:55.649Z,55.8
2024-05-09T20:30:34.339Z,55.8
2024-05-09T20:35:53.315Z,55.8
2024-05-09T20:41:11.839Z,55.1
2024-05-09T20:46:30.283Z,54.7
2024-05-09T20:51:48.656Z,54.7
2024-05-09T20:57:07.235Z,55
2024-05-09T21:02:26.194Z,55.2
2024-05-09T21:07:44.313Z,55.3
2024-05-09T21:13:05.621Z,54.4
2024-05-09T21:18:24.543Z,54.6
2024-05-09T21:23:42.459Z,54.6
2024-05-09T21:29:00.396Z,54.8
2024-05-09T21:34:19.172Z,55.1
2024-05-09T21:39:37.627Z,54.3
2024-05-09T21:44:55.876Z,55.4
2024-05-09T21:50:28.163Z,55.3
2024-05-09T21:55:50.926Z,54.6
2024-05-09T22:01:09.285Z,55.3
2024-05-09T22:06:27.452Z,54.8
2024-05-09T22:11:50.397Z,54.8
2024-05-09T22:17:10.652Z,55.3
2024-05-09T22:22:28.889Z,54.6
2024-05-09T22:27:47.083Z,55.5
2024-05-09T22:33:06.370Z,55.4
2024-05-09T22:38:24.836Z,55
2024-05-09T22:43:43.338Z,55.1
2024-05-09T22:49:02.023Z,54.9
2024-05-09T22:54:20.436Z,56
2024-05-09T22:59:38.954Z,55.9
2024-05-09T23:04:57.303Z,56
2024-05-09T23:10:36.368Z,55.9
2024-05-09T23:15:56.432Z,55.9
2024-05-09T23:21:14.576Z,55.7
2024-05-09T23:26:32.514Z,55.5
2024-05-09T23:31:50.445Z,55.9
2024-05-09T23:37:09.086Z,55.7
2024-05-09T23:42:27.295Z,55.6
2024-05-09T23:47:46.486Z,55.7
2024-05-09T23:53:07.006Z,55.7
2024-05-09T23:58:26.879Z,55.7
